createdAt,value
2019-05-12T00:02:51.036Z,4.63
2019-05-12T00:06:59.279Z,7.63
2019-05-12T00:11:08.989Z,5.67
2019-05-12T00:15:19.278Z,6.80
2019-05-12T00:19:28.585Z,6.20
2019-05-12T00:23:58.062Z,6.20
2019-05-12T00:28:05.158Z,6.47
2019-05-12T00:32:13.769Z,4.97
2019-05-12T00:36:22.402Z,5.23
2019-05-12T00:40:30.247Z,4.77
2019-05-12T00:44:39.169Z,9.97
2019-05-12T00:48:48.345Z,8.93
2019-05-12T00:52:57.954Z,9.30
2019-05-12T00:57:07.678Z,10.80
2019-05-12T01:01:18.272Z,7.70
2019-05-12T01:05:25.610Z,14.10
2019-05-12T01:09:33.879Z,13.53
2019-05-12T01:13:41.502Z,14.80
2019-05-12T01:17:49.621Z,14.03
2019-05-12T01:21:58.711Z,13.63
2019-05-12T01:26:08.844Z,15.03
2019-05-12T01:30:18.035Z,15.57
2019-05-12T01:34:27.801Z,9.70
2019-05-12T01:38:37.798Z,11.23
2019-05-12T01:42:45.374Z,8.40
2019-05-12T01:46:53.797Z,8.83
2019-05-12T01:51:01.424Z,7.67
2019-05-12T01:55:10.036Z,10.13
2019-05-12T01:59:18.574Z,11.90
2019-05-12T02:03:28.193Z,7.47
2019-05-12T02:07:40.376Z,5.77
2019-05-12T02:11:48.573Z,4.77
2019-05-12T02:15:57.872Z,6.53
2019-05-12T02:20:07.870Z,4.87
2019-05-12T02:24:24.342Z,5.63
2019-05-12T02:28:25.199Z,4.43
2019-05-12T02:32:47.230Z,4.07
2019-05-12T02:36:44.799Z,4.40
2019-05-12T02:40:55.396Z,4.37
2019-05-12T02:45:05.527Z,4.80
2019-05-12T02:49:14.648Z,3.63
2019-05-12T02:53:24.793Z,4.10
2019-05-12T02:57:34.342Z,4.20
2019-05-12T03:01:45.246Z,3.90
2019-05-12T03:05:55.090Z,3.97
2019-05-12T03:10:05.140Z,4.07
2019-05-12T03:14:15.693Z,4.00
2019-05-12T03:18:25.131Z,4.17
2019-05-12T03:22:35.281Z,4.57
2019-05-12T03:26:45.006Z,4.13
2019-05-12T03:30:57.766Z,5.50
2019-05-12T03:35:08.164Z,6.47
2019-05-12T03:39:15.021Z,5.13
2019-05-12T03:43:24.452Z,5.57
2019-05-12T03:47:35.582Z,5.27
2019-05-12T03:51:45.239Z,7.23
2019-05-12T03:55:55.067Z,5.00
2019-05-12T04:00:04.950Z,5.83
2019-05-12T04:04:11.334Z,9.07
2019-05-12T04:08:19.273Z,10.93
2019-05-12T04:12:26.979Z,13.63
2019-05-12T04:16:36.425Z,14.40
2019-05-12T04:20:45.510Z,12.83
2019-05-12T04:24:55.130Z,7.27
2019-05-12T04:29:05.061Z,7.30
2019-05-12T04:33:15.494Z,5.60
2019-05-12T04:37:24.909Z,17.87
2019-05-12T04:41:35.436Z,15.23
2019-05-12T04:45:45.055Z,14.90
2019-05-12T04:49:54.593Z,9.63
2019-05-12T04:54:05.375Z,12.67
2019-05-12T04:58:15.620Z,18.30
2019-05-12T05:02:25.017Z,9.70
2019-05-12T05:06:34.011Z,11.77
2019-05-12T05:10:40.567Z,12.40
2019-05-12T05:14:48.486Z,10.80
2019-05-12T05:18:56.738Z,10.67
2019-05-12T05:23:04.996Z,11.97
2019-05-12T05:27:13.319Z,12.03
2019-05-12T05:31:21.484Z,12.67
2019-05-12T05:35:35.137Z,9.53
2019-05-12T05:39:47.960Z,9.30
2019-05-12T05:43:52.954Z,15.07
2019-05-12T05:47:59.676Z,12.47
2019-05-12T05:52:07.549Z,14.07
2019-05-12T05:56:18.207Z,15.17
2019-05-12T06:00:26.335Z,14.93
2019-05-12T06:04:34.453Z,15.57
2019-05-12T06:08:47.038Z,20.30
2019-05-12T06:12:54.761Z,15.83
2019-05-12T06:17:04.344Z,13.17
2019-05-12T06:21:13.697Z,12.67
2019-05-12T06:25:21.558Z,12.43
2019-05-12T06:29:29.582Z,12.27
2019-05-12T06:33:39.032Z,11.30
2019-05-12T06:37:57.372Z,11.13
2019-05-12T06:42:01.930Z,16.27
2019-05-12T06:46:06.711Z,12.13
2019-05-12T06:50:14.765Z,5.10
2019-05-12T06:54:24.709Z,4.30
2019-05-12T06:58:34.369Z,8.70
2019-05-12T07:02:50.041Z,4.67
2019-05-12T07:06:56.185Z,3.47
2019-05-12T07:11:05.941Z,3.43
2019-05-12T07:15:14.271Z,1.93
2019-05-12T07:19:23.373Z,2.27
2019-05-12T07:23:33.682Z,2.50
2019-05-12T07:27:47.304Z,2.87
2019-05-12T07:31:53.663Z,2.03
2019-05-12T07:36:06.454Z,1.70
2019-05-12T07:40:13.717Z,5.90
2019-05-12T07:44:25.315Z,2.50
2019-05-12T07:48:33.505Z,2.20
2019-05-12T07:52:44.163Z,3.62
2019-05-12T07:56:53.968Z,3.27
2019-05-12T08:01:02.706Z,2.15
2019-05-12T08:05:19.551Z,2.10
2019-05-12T08:09:24.147Z,2.50
2019-05-12T08:13:35.993Z,4.55
2019-05-12T08:17:40.539Z,2.55
2019-05-12T08:21:49.173Z,4.53
2019-05-12T08:25:57.809Z,11.05
2019-05-12T08:30:06.911Z,3.25
2019-05-12T08:34:14.842Z,5.05
2019-05-12T08:38:24.886Z,6.97
2019-05-12T08:42:34.421Z,8.33
2019-05-12T08:46:51.910Z,6.15
2019-05-12T08:50:54.494Z,2.30
2019-05-12T08:55:04.306Z,2.20
2019-05-12T08:59:17.582Z,2.12
2019-05-12T09:03:27.189Z,2.75
2019-05-12T09:07:35.807Z,3.52
2019-05-12T09:11:41.109Z,3.27
2019-05-12T09:15:48.654Z,1.70
2019-05-12T09:20:03.661Z,2.15
2019-05-12T09:24:06.087Z,2.40
2019-05-12T09:28:13.985Z,1.82
2019-05-12T09:32:23.511Z,2.75
2019-05-12T09:36:33.927Z,2.25
2019-05-12T09:40:43.547Z,2.42
2019-05-12T09:44:50.900Z,2.77
2019-05-12T09:48:58.850Z,3.58
2019-05-12T09:53:11.503Z,3.45
2019-05-12T09:57:17.108Z,2.65
2019-05-12T10:01:29.260Z,2.10
2019-05-12T10:05:41.144Z,1.80
2019-05-12T10:09:49.256Z,1.77
2019-05-12T10:14:00.119Z,1.70
2019-05-12T10:18:10.877Z,2.15
2019-05-12T10:22:14.382Z,2.00
2019-05-12T10:26:22.175Z,2.67
2019-05-12T10:30:30.364Z,1.85
2019-05-12T10:34:40.447Z,2.45
2019-05-12T10:38:48.477Z,2.40
2019-05-12T10:42:57.052Z,2.47
2019-05-12T10:47:05.664Z,2.17
2019-05-12T10:51:13.543Z,2.75
2019-05-12T10:55:23.910Z,2.20
2019-05-12T10:59:33.420Z,2.37
2019-05-12T11:03:43.049Z,2.37
2019-05-12T11:07:53.862Z,2.75
2019-05-12T11:12:03.243Z,2.52
2019-05-12T11:16:10.534Z,2.30
2019-05-12T11:20:18.338Z,2.40
2019-05-12T11:24:26.371Z,3.25
2019-05-12T11:28:34.356Z,2.30
2019-05-12T11:32:44.141Z,2.08
2019-05-12T11:36:54.337Z,2.52
2019-05-12T11:41:01.623Z,3.90
2019-05-12T11:45:09.658Z,3.77
2019-05-12T11:49:21.726Z,2.10
2019-05-12T11:53:31.151Z,2.47
2019-05-12T11:57:37.679Z,1.98
2019-05-12T12:01:49.767Z,3.20
2019-05-12T12:06:05.563Z,3.02
2019-05-12T12:10:14.215Z,2.08
2019-05-12T12:14:23.869Z,1.90
2019-05-12T12:18:47.945Z,2.37
2019-05-12T12:22:50.860Z,2.37
2019-05-12T12:26:58.924Z,2.10
2019-05-12T12:31:07.829Z,5.50
2019-05-12T12:35:16.018Z,2.00
2019-05-12T12:39:23.851Z,4.27
2019-05-12T12:43:31.914Z,2.30
2019-05-12T12:47:44.372Z,2.20
2019-05-12T12:51:48.818Z,2.43
2019-05-12T12:55:58.762Z,1.85
2019-05-12T13:00:07.294Z,2.37
2019-05-12T13:04:14.652Z,2.60
2019-05-12T13:08:24.772Z,2.73
2019-05-12T13:12:35.624Z,3.70
2019-05-12T13:16:43.697Z,4.10
2019-05-12T13:20:53.826Z,2.90
2019-05-12T13:25:04.585Z,2.90
2019-05-12T13:29:09.752Z,2.47
2019-05-12T13:33:18.441Z,2.57
2019-05-12T13:37:26.228Z,3.47
2019-05-12T13:41:34.322Z,4.43
2019-05-12T13:45:43.966Z,3.27
2019-05-12T13:49:51.358Z,2.60
2019-05-12T13:53:59.539Z,3.63
2019-05-12T13:58:07.328Z,2.97
2019-05-12T14:02:22.057Z,4.83
2019-05-12T14:06:32.053Z,2.83
2019-05-12T14:10:37.389Z,5.10
2019-05-12T14:14:43.779Z,3.27
2019-05-12T14:18:57.042Z,3.07
2019-05-12T14:23:01.143Z,2.83
2019-05-12T14:27:09.315Z,3.63
2019-05-12T14:31:26.601Z,3.07
2019-05-12T14:35:26.397Z,2.60
2019-05-12T14:39:40.116Z,2.57
2019-05-12T14:43:47.864Z,3.33
2019-05-12T14:48:00.003Z,3.53
2019-05-12T14:52:04.754Z,3.60
2019-05-12T14:56:14.085Z,2.20
2019-05-12T15:00:24.076Z,2.97
2019-05-12T15:04:31.328Z,2.70
2019-05-12T15:08:40.327Z,2.70
2019-05-12T15:12:48.118Z,2.10
2019-05-12T15:16:55.844Z,2.60
2019-05-12T15:21:05.359Z,2.80
2019-05-12T15:25:19.137Z,4.03
2019-05-12T15:29:27.961Z,2.23
2019-05-12T15:33:35.371Z,2.70
2019-05-12T15:37:43.862Z,2.43
2019-05-12T15:41:56.508Z,3.20
2019-05-12T15:46:01.811Z,3.00
2019-05-12T15:50:11.219Z,2.43
2019-05-12T15:54:19.025Z,2.50
2019-05-12T15:58:26.681Z,2.80
2019-05-12T16:02:34.581Z,2.77
2019-05-12T16:06:52.971Z,2.97
2019-05-12T16:10:53.537Z,4.83
2019-05-12T16:15:04.562Z,2.53
2019-05-12T16:19:11.656Z,5.80
2019-05-12T16:23:28.041Z,3.97
2019-05-12T16:27:35.625Z,2.80
2019-05-12T16:31:45.631Z,3.67
2019-05-12T16:35:49.931Z,3.20
2019-05-12T16:39:57.728Z,5.33
2019-05-12T16:44:07.916Z,2.90
2019-05-12T16:48:29.282Z,5.73
2019-05-12T16:52:24.572Z,3.70
2019-05-12T16:56:33.937Z,3.60
2019-05-12T17:00:45.149Z,3.73
2019-05-12T17:04:53.953Z,4.67
2019-05-12T17:09:03.366Z,4.50
2019-05-12T17:13:13.841Z,6.63
2019-05-12T17:17:21.408Z,6.20
2019-05-12T17:21:29.638Z,7.30
2019-05-12T17:25:37.369Z,25.40
2019-05-12T17:29:45.171Z,8.43
2019-05-12T17:33:54.354Z,7.57
2019-05-12T17:38:04.301Z,6.13
2019-05-12T17:42:20.889Z,5.03
2019-05-12T17:46:23.334Z,7.53
2019-05-12T17:50:31.172Z,8.00
2019-05-12T17:54:39.103Z,4.83
2019-05-12T17:58:47.659Z,5.50
2019-05-12T18:03:14.160Z,5.13
2019-05-12T18:07:13.314Z,5.87
2019-05-12T18:11:16.059Z,4.67
2019-05-12T18:15:32.497Z,5.23
2019-05-12T18:19:33.820Z,3.73
2019-05-12T18:23:43.470Z,3.80
2019-05-12T18:27:51.102Z,4.97
2019-05-12T18:31:58.979Z,11.77
2019-05-12T18:36:06.379Z,5.03
2019-05-12T18:40:14.851Z,4.30
2019-05-12T18:44:28.984Z,7.27
2019-05-12T18:48:34.277Z,4.57
2019-05-12T18:52:43.653Z,5.30
2019-05-12T18:56:52.472Z,4.43
2019-05-12T19:01:00.443Z,5.70
2019-05-12T19:05:12.930Z,4.60
2019-05-12T19:09:18.711Z,5.03
2019-05-12T19:13:27.027Z,6.77
2019-05-12T19:17:35.059Z,6.33
2019-05-12T19:21:43.818Z,5.77
2019-05-12T19:25:54.177Z,4.83
2019-05-12T19:30:04.286Z,5.37
2019-05-12T19:34:20.045Z,5.30
2019-05-12T19:38:23.937Z,5.10
2019-05-12T19:42:31.395Z,5.90
2019-05-12T19:46:39.765Z,4.93
2019-05-12T19:50:54.977Z,4.67
2019-05-12T19:54:58.532Z,4.97
2019-05-12T19:59:06.379Z,5.00
2019-05-12T20:03:14.487Z,7.27
2019-05-12T20:07:23.379Z,5.60
2019-05-12T20:11:32.160Z,4.40
2019-05-12T20:15:43.177Z,5.23
2019-05-12T20:19:49.930Z,5.13
2019-05-12T20:23:58.028Z,4.80
2019-05-12T20:28:11.300Z,4.83
2019-05-12T20:32:16.327Z,3.90
2019-05-12T20:36:25.927Z,4.30
2019-05-12T20:40:37.558Z,4.37
2019-05-12T20:44:45.176Z,4.30
2019-05-12T20:48:53.943Z,4.07
2019-05-12T20:53:03.902Z,4.10
2019-05-12T20:57:14.037Z,3.50
2019-05-12T21:01:26.639Z,3.67
2019-05-12T21:05:34.336Z,3.80
2019-05-12T21:09:44.145Z,4.10
2019-05-12T21:13:54.575Z,3.90
2019-05-12T21:18:07.241Z,4.27
2019-05-12T21:22:14.237Z,4.17
2019-05-12T21:26:22.812Z,4.37
2019-05-12T21:30:42.328Z,4.87
2019-05-12T21:34:52.380Z,3.83
2019-05-12T21:38:59.515Z,5.10
2019-05-12T21:43:08.064Z,4.60
2019-05-12T21:47:15.876Z,5.63
2019-05-12T21:51:24.132Z,5.13
2019-05-12T21:55:34.003Z,5.23
2019-05-12T21:59:41.941Z,5.57
2019-05-12T22:03:57.872Z,4.87
2019-05-12T22:08:00.394Z,5.30
2019-05-12T22:12:08.701Z,5.07
2019-05-12T22:16:16.288Z,5.67
2019-05-12T22:20:23.923Z,6.20
2019-05-12T22:24:37.290Z,6.67
2019-05-12T22:28:46.693Z,7.27
2019-05-12T22:32:51.279Z,6.83
2019-05-12T22:36:59.516Z,7.50
2019-05-12T22:41:08.993Z,7.10
2019-05-12T22:45:16.933Z,5.93
2019-05-12T22:49:25.206Z,6.73
2019-05-12T22:53:32.867Z,5.97
2019-05-12T22:57:40.709Z,6.83
2019-05-12T23:01:48.547Z,8.23
2019-05-12T23:06:01.420Z,9.00
2019-05-12T23:10:11.015Z,8.90
2019-05-12T23:14:20.681Z,10.40
2019-05-12T23:18:30.692Z,7.73
2019-05-12T23:22:38.112Z,7.20
2019-05-12T23:26:47.990Z,7.00
2019-05-12T23:30:56.493Z,7.83
2019-05-12T23:35:04.996Z,8.63
2019-05-12T23:39:14.338Z,11.60
2019-05-12T23:43:23.794Z,14.63
2019-05-12T23:47:34.335Z,13.07
2019-05-12T23:51:43.882Z,13.10
2019-05-12T23:55:51.519Z,13.57
2019-05-12T23:59:59.518Z,14.07
